Terminal Aerodrome Forecast
Issued by NWS Bismarck, ND

Home | Current Version | Previous Version | Text Only | Print | Product List | Glossary On
Versions: 1 2 3 4 5 6 7 8 9 10 11 12 13 14 15 16 17 18 19 20 21 22 23 24 25 26
000
FTUS43 KBIS 050548
TAFBIS
TAF
KBIS 050548Z 0506/0606 03005KT P6SM SKC
      TEMPO 0508/0510 4SM BR BKN004
     FM051000 07009KT 2SM BR OVC003
      TEMPO 0514/0517 09010KT 5SM BR SCT005 BKN015
     FM051700 10011KT P6SM -SHRA BKN035 BKN110
     FM060100 11007KT P6SM SCT070 SCT120=

USA.gov is the U.S. government's official web portal to all federal, state and local government web resources and services.